createdAt,value
2023-05-24T00:00:43.438Z,101262.17
2023-05-24T00:03:25.868Z,101265.71
2023-05-24T00:05:54.194Z,101264.62
2023-05-24T00:08:22.491Z,101263.98
2023-05-24T00:10:50.693Z,101263.27
2023-05-24T00:13:19.112Z,101260.69
2023-05-24T00:15:47.294Z,101259.00
2023-05-24T00:18:17.778Z,101260.67
2023-05-24T00:20:46.415Z,101258.30
2023-05-24T00:23:14.767Z,101258.01
2023-05-24T00:25:42.936Z,101257.29
2023-05-24T00:28:11.052Z,101257.56
2023-05-24T00:30:39.378Z,101260.14
2023-05-24T00:33:07.674Z,101260.52
2023-05-24T00:35:35.917Z,101259.82
2023-05-24T00:38:04.093Z,101256.52
2023-05-24T00:40:32.243Z,101256.05
2023-05-24T00:43:00.392Z,101255.99
2023-05-24T00:45:28.560Z,101257.28
2023-05-24T00:47:56.802Z,101253.56
2023-05-24T00:50:25.675Z,101252.61
2023-05-24T00:52:54.718Z,101250.36
2023-05-24T00:55:23.245Z,101251.81
2023-05-24T00:57:52.843Z,101247.98
2023-05-24T01:00:21.285Z,101246.41
2023-05-24T01:02:51.741Z,101241.14
2023-05-24T01:05:20.308Z,101243.98
2023-05-24T01:08:04.772Z,101244.83
2023-05-24T01:10:40.746Z,101250.55
2023-05-24T01:13:27.451Z,101249.55
2023-05-24T01:16:11.316Z,101249.34
2023-05-24T01:18:44.386Z,101249.88
2023-05-24T01:21:12.522Z,101248.99
2023-05-24T01:23:53.320Z,101253.08
2023-05-24T01:26:49.093Z,101251.35
2023-05-24T01:29:18.614Z,101255.80
2023-05-24T01:31:46.881Z,101257.73
2023-05-24T01:34:15.227Z,101257.41
2023-05-24T01:36:43.355Z,101257.48
2023-05-24T01:39:13.559Z,101258.10
2023-05-24T01:41:51.716Z,101258.38
2023-05-24T01:44:29.701Z,101256.35
2023-05-24T01:47:04.818Z,101251.52
2023-05-24T01:49:39.748Z,101256.66
2023-05-24T01:52:17.234Z,101254.58
2023-05-24T01:54:51.625Z,101250.23
2023-05-24T01:57:22.871Z,101255.89
2023-05-24T01:59:51.696Z,101253.48
2023-05-24T02:02:20.026Z,101254.09
2023-05-24T02:04:48.328Z,101256.48
2023-05-24T02:07:17.647Z,101256.20
2023-05-24T02:09:45.985Z,101255.15
2023-05-24T02:12:14.715Z,101258.75
2023-05-24T02:14:42.998Z,101253.89
2023-05-24T02:17:11.260Z,101257.75
2023-05-24T02:19:39.436Z,101263.96
2023-05-24T02:22:07.829Z,101260.00
2023-05-24T02:24:37.128Z,101263.45
2023-05-24T02:27:05.670Z,101265.88
2023-05-24T02:29:33.852Z,101261.52
2023-05-24T02:32:02.104Z,101267.06
2023-05-24T02:34:30.264Z,101267.34
2023-05-24T02:36:58.958Z,101267.50
2023-05-24T02:39:27.082Z,101272.79
2023-05-24T02:41:55.557Z,101269.73
2023-05-24T02:44:23.844Z,101251.15
2023-05-24T02:46:52.084Z,101272.16
2023-05-24T02:49:20.175Z,101270.27
2023-05-24T02:51:48.307Z,101266.16
2023-05-24T02:54:17.838Z,101271.23
2023-05-24T02:56:46.205Z,101268.77
2023-05-24T02:59:16.216Z,101269.23
2023-05-24T03:01:44.596Z,101268.04
2023-05-24T03:04:13.128Z,101262.92
2023-05-24T03:06:41.321Z,101264.42
2023-05-24T03:09:09.770Z,101259.54
2023-05-24T03:11:37.925Z,101260.81
2023-05-24T03:14:06.760Z,101251.80
2023-05-24T03:16:35.319Z,101267.01
2023-05-24T03:19:08.435Z,101264.39
2023-05-24T03:21:38.377Z,101270.48
2023-05-24T03:24:06.770Z,101275.10
2023-05-24T03:26:35.003Z,101277.60
2023-05-24T03:29:03.395Z,101277.94
2023-05-24T03:31:36.950Z,101275.63
2023-05-24T03:34:05.723Z,101274.77
2023-05-24T03:36:34.736Z,101275.81
2023-05-24T03:39:04.599Z,101267.33
2023-05-24T03:41:35.671Z,101277.35
2023-05-24T03:44:03.999Z,101277.45
2023-05-24T03:46:32.389Z,101276.68
2023-05-24T03:49:02.146Z,101277.83
2023-05-24T03:51:30.887Z,101276.87
2023-05-24T03:53:59.516Z,101279.20
2023-05-24T03:56:27.790Z,101269.98
2023-05-24T03:59:00.889Z,101282.57
2023-05-24T04:01:34.544Z,101279.05
2023-05-24T04:04:04.214Z,101285.56
2023-05-24T04:06:32.665Z,101287.00
2023-05-24T04:09:02.071Z,101290.46
2023-05-24T04:11:30.729Z,101293.45
2023-05-24T04:14:02.637Z,101292.26
2023-05-24T04:16:34.451Z,101297.09
2023-05-24T04:19:05.941Z,101298.23
2023-05-24T04:21:36.891Z,101293.76
2023-05-24T04:24:06.166Z,101297.65
2023-05-24T04:26:34.884Z,101298.70
2023-05-24T04:29:03.978Z,101294.48
2023-05-24T04:31:34.564Z,101299.75
2023-05-24T04:34:03.097Z,101299.83
2023-05-24T04:36:34.283Z,101300.70
2023-05-24T04:39:05.228Z,101300.22
2023-05-24T04:41:35.452Z,101302.91
2023-05-24T04:44:03.714Z,101299.95
2023-05-24T04:46:32.446Z,101302.91
2023-05-24T04:49:01.854Z,101300.88
2023-05-24T04:51:30.048Z,101301.29
2023-05-24T04:53:58.408Z,101303.29
2023-05-24T04:56:27.115Z,101306.12
2023-05-24T04:58:55.276Z,101306.44
2023-05-24T05:01:23.513Z,101308.80
2023-05-24T05:03:51.756Z,101309.46
2023-05-24T05:06:19.853Z,101314.98
2023-05-24T05:08:47.997Z,101318.49
2023-05-24T05:11:16.302Z,101321.28
2023-05-24T05:13:44.981Z,101322.04
2023-05-24T05:16:13.146Z,101315.48
2023-05-24T05:18:41.244Z,101327.58
2023-05-24T05:21:09.386Z,101336.81
2023-05-24T05:23:39.868Z,101342.75
2023-05-24T05:26:08.170Z,101344.31
2023-05-24T05:28:36.358Z,101347.07
2023-05-24T05:31:05.077Z,101344.06
2023-05-24T05:33:33.642Z,101346.36
2023-05-24T05:36:01.909Z,101347.77
2023-05-24T05:38:30.092Z,101346.36
2023-05-24T05:40:58.264Z,101350.21
2023-05-24T05:43:26.539Z,101351.38
2023-05-24T05:45:55.879Z,101354.27
2023-05-24T05:48:24.332Z,101357.34
2023-05-24T05:50:52.829Z,101356.42
2023-05-24T05:53:20.970Z,101357.81
2023-05-24T05:55:49.149Z,101358.11
2023-05-24T05:58:17.311Z,101357.69
2023-05-24T06:00:45.781Z,101354.98
2023-05-24T06:03:14.030Z,101359.04
2023-05-24T06:05:42.520Z,101358.43
2023-05-24T06:08:10.925Z,101361.30
2023-05-24T06:10:39.134Z,101359.05
2023-05-24T06:13:07.770Z,101365.91
2023-05-24T06:15:36.042Z,101365.90
2023-05-24T06:18:04.274Z,101367.73
2023-05-24T06:20:32.573Z,101371.98
2023-05-24T06:23:01.553Z,101376.20
2023-05-24T06:25:31.034Z,101374.61
2023-05-24T06:27:59.213Z,101376.66
2023-05-24T06:30:27.517Z,101378.63
2023-05-24T06:32:56.436Z,101381.55
2023-05-24T06:35:24.623Z,101380.46
2023-05-24T06:37:53.386Z,101380.27
2023-05-24T06:40:21.645Z,101385.95
2023-05-24T06:42:49.775Z,101392.20
2023-05-24T06:45:17.912Z,101384.91
2023-05-24T06:47:46.585Z,101397.52
2023-05-24T06:50:15.208Z,101400.75
2023-05-24T06:52:43.412Z,101402.27
2023-05-24T06:55:11.784Z,101410.02
2023-05-24T06:57:40.207Z,101415.80
2023-05-24T07:00:12.384Z,101417.70
2023-05-24T07:02:41.435Z,101408.28
2023-05-24T07:05:12.654Z,101419.92
2023-05-24T07:07:44.143Z,101418.09
2023-05-24T07:10:12.428Z,101422.79
2023-05-24T07:12:40.776Z,101421.58
2023-05-24T07:15:10.012Z,101425.19
2023-05-24T07:17:38.290Z,101427.70
2023-05-24T07:20:10.661Z,101426.02
2023-05-24T07:22:38.851Z,101431.29
2023-05-24T07:25:07.650Z,101432.58
2023-05-24T07:27:36.267Z,101433.98
2023-05-24T07:30:07.928Z,101438.36
2023-05-24T07:32:42.369Z,101438.51
2023-05-24T07:35:16.303Z,101439.75
2023-05-24T07:37:44.426Z,101435.64
2023-05-24T07:40:12.756Z,101445.64
2023-05-24T07:42:42.024Z,101446.51
2023-05-24T07:45:10.747Z,101448.57
2023-05-24T07:47:38.998Z,101447.69
2023-05-24T07:50:07.447Z,101448.55
2023-05-24T07:52:35.549Z,101454.70
2023-05-24T07:55:04.377Z,101454.58
2023-05-24T07:57:33.170Z,101455.07
2023-05-24T08:00:08.537Z,101459.38
2023-05-24T08:02:41.443Z,101460.22
2023-05-24T08:05:15.047Z,101456.91
2023-05-24T08:07:43.078Z,101455.33
2023-05-24T08:10:13.956Z,101453.80
2023-05-24T08:12:42.944Z,101453.05
2023-05-24T08:15:12.106Z,101453.26
2023-05-24T08:17:40.447Z,101450.81
2023-05-24T08:20:14.761Z,101452.48
2023-05-24T08:22:43.113Z,101445.44
2023-05-24T08:25:14.256Z,101453.37
2023-05-24T08:27:42.671Z,101456.63
2023-05-24T08:30:11.362Z,101459.80
2023-05-24T08:32:39.630Z,101462.28
2023-05-24T08:35:20.280Z,101461.60
2023-05-24T08:37:50.493Z,101464.49
2023-05-24T08:40:18.918Z,101465.84
2023-05-24T08:42:50.099Z,101466.42
2023-05-24T08:45:19.113Z,101468.99
2023-05-24T08:47:48.302Z,101467.03
2023-05-24T08:50:17.036Z,101473.98
2023-05-24T08:52:46.129Z,101477.88
2023-05-24T08:55:15.228Z,101462.90
2023-05-24T08:57:46.207Z,101475.96
2023-05-24T09:00:15.212Z,101472.90
2023-05-24T09:02:45.539Z,101466.57
2023-05-24T09:05:17.106Z,101476.10
2023-05-24T09:07:46.625Z,101482.14
2023-05-24T09:10:15.534Z,101480.83
2023-05-24T09:12:51.881Z,101484.52
2023-05-24T09:15:20.122Z,101484.67
2023-05-24T09:17:48.281Z,101487.40
2023-05-24T09:20:16.694Z,101483.98
2023-05-24T09:22:48.276Z,101488.23
2023-05-24T09:25:18.857Z,101487.83
2023-05-24T09:27:51.629Z,101488.13
2023-05-24T09:30:21.744Z,101493.84
2023-05-24T09:33:00.288Z,101482.40
2023-05-24T09:35:29.079Z,101497.05
2023-05-24T09:38:00.475Z,101498.01
2023-05-24T09:40:29.860Z,101496.36
2023-05-24T09:43:05.098Z,101498.87
2023-05-24T09:45:33.539Z,101498.17
2023-05-24T09:48:04.178Z,101493.34
2023-05-24T09:50:32.367Z,101494.77
2023-05-24T09:53:02.732Z,101499.58
2023-05-24T09:55:31.230Z,101500.58
2023-05-24T09:58:04.398Z,101503.30
2023-05-24T10:00:41.755Z,101499.30
2023-05-24T10:03:12.919Z,101500.95
2023-05-24T10:05:45.839Z,101501.29
2023-05-24T10:08:14.718Z,101502.71
2023-05-24T10:10:44.101Z,101496.16
2023-05-24T10:13:16.150Z,101496.45
2023-05-24T10:15:45.432Z,101497.38
2023-05-24T10:18:14.306Z,101494.98
2023-05-24T10:20:43.353Z,101492.12
2023-05-24T10:23:17.039Z,101492.97
2023-05-24T10:25:51.016Z,101490.96
2023-05-24T10:28:21.636Z,101487.78
2023-05-24T10:31:12.677Z,101486.66
2023-05-24T10:33:44.725Z,101487.06
2023-05-24T10:36:14.592Z,101492.70
2023-05-24T10:38:43.788Z,101494.59
2023-05-24T10:41:13.515Z,101486.92
2023-05-24T10:43:56.845Z,101490.02
2023-05-24T10:46:35.088Z,101495.58
2023-05-24T10:49:05.077Z,101498.73
2023-05-24T10:51:36.994Z,101491.70
2023-05-24T10:54:19.149Z,101503.98
2023-05-24T10:56:49.639Z,101497.50
2023-05-24T10:59:30.948Z,101497.96
2023-05-24T11:02:00.990Z,101492.25
2023-05-24T11:04:36.597Z,101487.69
2023-05-24T11:07:09.695Z,101491.98
2023-05-24T11:09:46.339Z,101490.76
2023-05-24T11:12:17.954Z,101488.36
2023-05-24T11:14:51.568Z,101493.31
2023-05-24T11:17:22.386Z,101495.89
2023-05-24T11:19:53.310Z,101504.61
2023-05-24T11:22:25.527Z,101504.86
2023-05-24T11:24:54.079Z,101508.77
2023-05-24T11:27:23.168Z,101506.14
2023-05-24T11:29:52.429Z,101505.48
2023-05-24T11:32:21.369Z,101509.39
2023-05-24T11:34:50.075Z,101503.26
2023-05-24T11:37:18.996Z,101504.63
2023-05-24T11:39:54.607Z,101504.17
2023-05-24T11:42:23.673Z,101503.41
2023-05-24T11:44:52.217Z,101502.98
2023-05-24T11:47:22.493Z,101503.40
2023-05-24T11:49:52.134Z,101503.65
2023-05-24T11:52:20.746Z,101504.35
2023-05-24T11:54:49.745Z,101505.58
2023-05-24T11:57:23.816Z,101504.56
2023-05-24T11:59:52.083Z,101503.14
2023-05-24T12:02:20.251Z,101504.13
2023-05-24T12:04:48.473Z,101504.81
2023-05-24T12:07:18.056Z,101506.27
2023-05-24T12:09:46.827Z,101508.83
2023-05-24T12:12:15.003Z,101505.88
2023-05-24T12:14:43.493Z,101509.60
2023-05-24T12:17:17.219Z,101510.38
2023-05-24T12:19:48.767Z,101503.55
2023-05-24T12:22:17.044Z,101508.71
2023-05-24T12:24:49.880Z,101509.23
2023-05-24T12:27:18.096Z,101503.55
2023-05-24T12:29:46.356Z,101501.88
2023-05-24T12:32:15.656Z,101508.89
2023-05-24T12:34:45.345Z,101511.24
2023-05-24T12:37:15.190Z,101514.79
2023-05-24T12:39:44.472Z,101518.17
2023-05-24T12:42:16.256Z,101519.63
2023-05-24T12:44:45.338Z,101516.41
2023-05-24T12:47:13.684Z,101517.80
2023-05-24T12:49:43.697Z,101514.95
2023-05-24T12:52:12.762Z,101524.57
2023-05-24T12:54:41.143Z,101519.71
2023-05-24T12:57:09.523Z,101518.29
2023-05-24T12:59:37.769Z,101510.65
2023-05-24T13:02:06.563Z,101508.79
2023-05-24T13:04:36.221Z,101509.05
2023-05-24T13:07:04.662Z,101505.90
2023-05-24T13:09:34.385Z,101502.11
2023-05-24T13:12:03.150Z,101507.84
2023-05-24T13:14:31.342Z,101506.86
2023-05-24T13:16:59.735Z,101507.42
2023-05-24T13:19:28.010Z,101513.33
2023-05-24T13:21:56.181Z,101518.30
2023-05-24T13:24:24.472Z,101517.20
2023-05-24T13:26:54.879Z,101515.34
2023-05-24T13:29:36.738Z,101515.67
2023-05-24T13:32:11.028Z,101515.70
2023-05-24T13:34:39.557Z,101515.88
2023-05-24T13:37:08.103Z,101518.30
2023-05-24T13:39:36.906Z,101521.22
2023-05-24T13:42:05.928Z,101517.80
2023-05-24T13:44:34.139Z,101528.98
2023-05-24T13:47:02.488Z,101529.98
2023-05-24T13:49:30.674Z,101527.27
2023-05-24T13:51:59.077Z,101525.13
2023-05-24T13:54:28.202Z,101531.19
2023-05-24T13:56:57.750Z,101530.30
2023-05-24T13:59:27.678Z,101525.48
2023-05-24T14:01:56.304Z,101529.63
2023-05-24T14:04:24.498Z,101528.09
2023-05-24T14:06:52.692Z,101529.67
2023-05-24T14:09:21.487Z,101534.30
2023-05-24T14:11:49.842Z,101532.88
2023-05-24T14:16:52.261Z,101525.67
2023-05-24T14:19:21.396Z,101523.46
2023-05-24T14:21:49.668Z,101524.88
2023-05-24T14:24:17.944Z,101535.71
2023-05-24T14:26:47.640Z,101535.77
2023-05-24T14:29:15.829Z,101531.34
2023-05-24T14:31:44.072Z,101536.86
2023-05-24T14:34:12.508Z,101536.45
2023-05-24T14:36:42.149Z,101535.27
2023-05-24T14:39:10.534Z,101535.86
2023-05-24T14:41:38.809Z,101541.93
2023-05-24T14:44:07.426Z,101542.55
2023-05-24T14:46:36.145Z,101540.27
2023-05-24T14:49:04.932Z,101541.27
2023-05-24T14:51:33.109Z,101538.95
2023-05-24T14:54:01.318Z,101538.16
2023-05-24T14:56:29.446Z,101539.54
2023-05-24T14:58:58.761Z,101539.60
2023-05-24T15:01:27.119Z,101542.25
2023-05-24T15:03:55.331Z,101544.27
2023-05-24T15:06:23.713Z,101542.66
2023-05-24T15:08:52.340Z,101546.45
2023-05-24T15:11:20.820Z,101543.02
2023-05-24T15:13:49.003Z,101544.04
2023-05-24T15:16:17.251Z,101543.90
2023-05-24T15:18:45.431Z,101544.91
2023-05-24T15:21:13.614Z,101547.19
2023-05-24T15:23:42.591Z,101550.84
2023-05-24T15:26:11.239Z,101553.52
2023-05-24T15:28:39.589Z,101556.11
2023-05-24T15:31:07.807Z,101547.48
2023-05-24T15:33:37.212Z,101557.67
2023-05-24T15:36:05.766Z,101556.74
2023-05-24T15:38:34.780Z,101559.64
2023-05-24T15:41:03.927Z,101557.08
2023-05-24T15:43:32.106Z,101554.43
2023-05-24T15:46:00.307Z,101553.25
2023-05-24T15:48:28.507Z,101559.11
2023-05-24T15:53:27.932Z,101556.59
2023-05-24T15:55:57.538Z,101556.35
2023-05-24T15:58:25.810Z,101553.02
2023-05-24T16:00:54.580Z,101554.65
2023-05-24T16:03:22.911Z,101550.29
2023-05-24T16:05:51.634Z,101556.07
2023-05-24T16:08:19.862Z,101554.57
2023-05-24T16:10:49.246Z,101552.33
2023-05-24T16:13:17.427Z,101552.56
2023-05-24T16:15:51.462Z,101557.89
2023-05-24T16:18:23.668Z,101560.42
2023-05-24T16:20:52.132Z,101556.21
2023-05-24T16:23:23.219Z,101568.73
2023-05-24T16:25:51.910Z,101573.44
2023-05-24T16:28:24.936Z,101576.17
2023-05-24T16:30:56.247Z,101583.08
2023-05-24T16:33:25.602Z,101577.07
2023-05-24T16:35:56.784Z,101587.35
2023-05-24T16:38:26.154Z,101587.44
2023-05-24T16:40:54.556Z,101590.73
2023-05-24T16:43:22.964Z,101594.96
2023-05-24T16:45:51.862Z,101597.15
2023-05-24T16:48:21.860Z,101601.35
2023-05-24T16:50:51.737Z,101603.94
2023-05-24T16:53:23.023Z,101608.95
2023-05-24T16:55:53.960Z,101607.31
2023-05-24T16:58:28.348Z,101607.67
2023-05-24T17:00:56.931Z,101613.70
2023-05-24T17:03:28.738Z,101615.26
2023-05-24T17:06:03.335Z,101617.90
2023-05-24T17:08:36.531Z,101618.14
2023-05-24T17:11:05.422Z,101617.04
2023-05-24T17:13:34.284Z,101625.02
2023-05-24T17:16:03.950Z,101625.71
2023-05-24T17:18:32.204Z,101631.50
2023-05-24T17:21:02.257Z,101632.04
2023-05-24T17:23:33.431Z,101629.35
2023-05-24T17:26:02.885Z,101635.54
2023-05-24T17:28:31.312Z,101638.33
2023-05-24T17:31:01.571Z,101639.95
2023-05-24T17:33:31.228Z,101647.71
2023-05-24T17:36:04.467Z,101660.30
2023-05-24T17:38:34.226Z,101659.17
2023-05-24T17:41:02.530Z,101656.80
2023-05-24T17:43:32.904Z,101659.86
2023-05-24T17:46:08.789Z,101671.77
2023-05-24T17:48:38.198Z,101672.63
2023-05-24T17:51:10.287Z,101664.42
2023-05-24T17:53:38.653Z,101678.82
2023-05-24T17:56:07.546Z,101679.65
2023-05-24T17:58:37.190Z,101681.00
2023-05-24T18:01:07.252Z,101679.02
2023-05-24T18:03:39.334Z,101690.05
2023-05-24T18:06:08.767Z,101699.81
2023-05-24T18:08:39.013Z,101701.98
2023-05-24T18:11:10.536Z,101705.34
2023-05-24T18:13:40.091Z,101709.77
2023-05-24T18:16:10.831Z,101708.94
2023-05-24T18:18:39.939Z,101702.73
2023-05-24T18:21:09.656Z,101714.30
2023-05-24T18:23:38.408Z,101717.25
2023-05-24T18:26:08.536Z,101716.59
2023-05-24T18:28:37.982Z,101713.69
2023-05-24T18:31:14.608Z,101721.66
2023-05-24T18:33:43.013Z,101710.76
2023-05-24T18:36:12.855Z,101723.48
2023-05-24T18:38:41.452Z,101729.99
2023-05-24T18:41:10.273Z,101732.30
2023-05-24T18:43:38.812Z,101734.52
2023-05-24T18:46:07.271Z,101726.70
2023-05-24T18:48:35.596Z,101741.64
2023-05-24T18:51:03.799Z,101746.00
2023-05-24T18:53:32.042Z,101733.20
2023-05-24T18:56:00.239Z,101750.70
2023-05-24T18:58:28.712Z,101752.95
2023-05-24T19:00:57.003Z,101756.33
2023-05-24T19:03:25.466Z,101754.85
2023-05-24T19:05:53.679Z,101759.12
2023-05-24T19:08:21.880Z,101760.77
2023-05-24T19:10:49.986Z,101755.59
2023-05-24T19:13:18.194Z,101764.04
2023-05-24T19:15:46.583Z,101764.55
2023-05-24T19:18:15.172Z,101768.10
2023-05-24T19:20:43.501Z,101776.81
2023-05-24T19:23:11.746Z,101772.33
2023-05-24T19:25:42.292Z,101776.66
2023-05-24T19:28:11.277Z,101780.93
2023-05-24T19:30:39.579Z,101781.27
2023-05-24T19:33:07.959Z,101783.16
2023-05-24T19:35:36.989Z,101784.10
2023-05-24T19:38:05.164Z,101781.29
2023-05-24T19:40:33.318Z,101781.57
2023-05-24T19:43:01.706Z,101780.57
2023-05-24T19:45:29.864Z,101782.80
2023-05-24T19:47:58.101Z,101770.96
2023-05-24T19:50:29.006Z,101786.14
2023-05-24T19:52:58.724Z,101785.64
2023-05-24T19:55:26.954Z,101783.15
2023-05-24T19:57:55.136Z,101775.12
2023-05-24T20:00:23.332Z,101786.51
2023-05-24T20:02:51.611Z,101774.38
2023-05-24T20:05:20.161Z,101787.16
2023-05-24T20:07:48.280Z,101787.41
2023-05-24T20:10:16.670Z,101784.84
2023-05-24T20:12:45.386Z,101793.54
2023-05-24T20:15:17.658Z,101796.71
2023-05-24T20:17:46.156Z,101801.64
2023-05-24T20:20:14.752Z,101804.87
2023-05-24T20:22:42.951Z,101809.77
2023-05-24T20:25:11.429Z,101815.52
2023-05-24T20:27:43.954Z,101822.73
2023-05-24T20:30:13.148Z,101825.61
2023-05-24T20:32:41.326Z,101820.79
2023-05-24T20:35:09.892Z,101815.81
2023-05-24T20:37:38.353Z,101821.08
2023-05-24T20:40:08.170Z,101816.91
2023-05-24T20:42:36.461Z,101831.77
2023-05-24T20:45:05.066Z,101823.40
2023-05-24T20:47:33.186Z,101821.66
2023-05-24T20:50:01.431Z,101828.13
2023-05-24T20:52:29.979Z,101832.39
2023-05-24T20:54:58.156Z,101830.88
2023-05-24T20:57:27.753Z,101832.02
2023-05-24T20:59:56.131Z,101825.47
2023-05-24T21:02:28.656Z,101838.46
2023-05-24T21:04:57.435Z,101824.43
2023-05-24T21:07:25.658Z,101834.52
2023-05-24T21:09:54.229Z,101830.78
2023-05-24T21:12:22.374Z,101829.55
2023-05-24T21:14:53.805Z,101832.85
2023-05-24T21:17:22.058Z,101835.15
2023-05-24T21:19:50.301Z,101834.13
2023-05-24T21:22:18.627Z,101833.64
2023-05-24T21:24:46.847Z,101834.52
2023-05-24T21:27:15.196Z,101842.41
2023-05-24T21:29:43.592Z,101840.27
2023-05-24T21:32:11.913Z,101848.20
2023-05-24T21:34:40.557Z,101847.77
2023-05-24T21:37:09.007Z,101848.73
2023-05-24T21:39:37.475Z,101850.80
2023-05-24T21:42:06.838Z,101852.05
2023-05-24T21:44:35.075Z,101856.69
2023-05-24T21:47:03.565Z,101861.02
2023-05-24T21:49:31.907Z,101861.63
2023-05-24T21:52:00.280Z,101860.27
2023-05-24T21:54:28.537Z,101866.19
2023-05-24T21:56:57.164Z,101865.61
2023-05-24T21:59:25.295Z,101861.27
2023-05-24T22:01:53.553Z,101857.39
2023-05-24T22:04:21.922Z,101856.35
2023-05-24T22:06:51.347Z,101855.83
2023-05-24T22:09:19.602Z,101853.64
2023-05-24T22:11:47.825Z,101853.36
2023-05-24T22:14:16.306Z,101849.45
2023-05-24T22:16:44.483Z,101846.64
2023-05-24T22:19:15.158Z,101848.97
2023-05-24T22:21:45.954Z,101848.69
2023-05-24T22:24:14.302Z,101844.98
2023-05-24T22:26:46.799Z,101843.73
2023-05-24T22:29:15.297Z,101833.34
2023-05-24T22:31:43.567Z,101843.38
2023-05-24T22:34:11.914Z,101845.10
2023-05-24T22:36:40.336Z,101841.49
2023-05-24T22:39:08.502Z,101840.69
2023-05-24T22:41:36.794Z,101841.78
2023-05-24T22:44:04.983Z,101825.59
2023-05-24T22:46:33.471Z,101838.73
2023-05-24T22:49:03.191Z,101830.19
2023-05-24T22:51:32.302Z,101843.89
2023-05-24T22:54:00.576Z,101846.92
2023-05-24T22:56:29.463Z,101854.42
2023-05-24T22:58:57.705Z,101852.66
2023-05-24T23:01:26.916Z,101851.53
2023-05-24T23:04:02.056Z,101849.44
2023-05-24T23:06:37.548Z,101850.81
2023-05-24T23:09:05.772Z,101853.37
2023-05-24T23:11:35.381Z,101850.69
2023-05-24T23:14:08.654Z,101853.48
2023-05-24T23:16:45.767Z,101854.63
2023-05-24T23:19:18.695Z,101855.66
2023-05-24T23:21:47.582Z,101856.02
2023-05-24T23:24:16.117Z,101852.23
2023-05-24T23:26:44.362Z,101855.39
2023-05-24T23:29:12.565Z,101854.18
2023-05-24T23:31:41.077Z,101858.49
2023-05-24T23:34:09.329Z,101852.81
2023-05-24T23:36:37.572Z,101857.94
2023-05-24T23:39:06.263Z,101856.64
2023-05-24T23:41:34.467Z,101854.88
2023-05-24T23:44:02.632Z,101849.41
2023-05-24T23:46:30.773Z,101858.77
2023-05-24T23:49:00.638Z,101856.79
2023-05-24T23:51:32.963Z,101860.25
2023-05-24T23:54:01.566Z,101862.61
2023-05-24T23:56:29.765Z,101866.91
2023-05-24T23:58:57.945Z,101873.14
